sensor_id;sensor_type;location;lat;lon;timestamp;pressure;altitude;pressure_sealevel;temperature;humidity
3250;BME280;1637;42.020;23.992;2023-07-20T00:02:22;92692.84;;;21.91;68.30
3250;BME280;1637;42.020;23.992;2023-07-20T00:04:50;92682.53;;;21.80;68.48
3250;BME280;1637;42.020;23.992;2023-07-20T00:07:17;92667.31;;;21.74;68.87
3250;BME280;1637;42.020;23.992;2023-07-20T00:09:44;92661.25;;;21.84;68.07
3250;BME280;1637;42.020;23.992;2023-07-20T00:12:10;92674.47;;;22.06;67.76
3250;BME280;1637;42.020;23.992;2023-07-20T00:14:37;92670.50;;;22.48;66.59
3250;BME280;1637;42.020;23.992;2023-07-20T00:17:05;92671.81;;;22.32;67.44
3250;BME280;1637;42.020;23.992;2023-07-20T00:19:32;92674.94;;;22.25;68.34
3250;BME280;1637;42.020;23.992;2023-07-20T00:22:01;92673.66;;;22.41;68.13
3250;BME280;1637;42.020;23.992;2023-07-20T00:24:30;92673.84;;;21.97;69.63
3250;BME280;1637;42.020;23.992;2023-07-20T00:26:57;92657.66;;;21.93;69.87
3250;BME280;1637;42.020;23.992;2023-07-20T00:29:26;92654.63;;;22.26;68.72
3250;BME280;1637;42.020;23.992;2023-07-20T00:31:53;92655.22;;;21.95;70.07
3250;BME280;1637;42.020;23.992;2023-07-20T00:34:20;92647.72;;;21.90;70.07
3250;BME280;1637;42.020;23.992;2023-07-20T00:36:46;92653.44;;;21.92;70.13
3250;BME280;1637;42.020;23.992;2023-07-20T00:39:15;92659.50;;;21.81;70.82
3250;BME280;1637;42.020;23.992;2023-07-20T00:41:42;92656.00;;;21.60;70.92
3250;BME280;1637;42.020;23.992;2023-07-20T00:44:09;92664.13;;;22.10;69.19
3250;BME280;1637;42.020;23.992;2023-07-20T00:46:36;92665.13;;;22.13;69.18
3250;BME280;1637;42.020;23.992;2023-07-20T00:49:03;92674.69;;;22.23;69.05
3250;BME280;1637;42.020;23.992;2023-07-20T00:51:31;92669.72;;;22.21;68.79
3250;BME280;1637;42.020;23.992;2023-07-20T00:53:58;92671.38;;;21.99;68.67
3250;BME280;1637;42.020;23.992;2023-07-20T00:56:27;92668.63;;;21.78;69.40
3250;BME280;1637;42.020;23.992;2023-07-20T00:58:53;92670.59;;;21.43;70.90
3250;BME280;1637;42.020;23.992;2023-07-20T01:01:22;92663.84;;;21.23;72.11
3250;BME280;1637;42.020;23.992;2023-07-20T01:03:48;92669.28;;;21.09;73.13
3250;BME280;1637;42.020;23.992;2023-07-20T01:06:25;92675.84;;;20.87;74.78
3250;BME280;1637;42.020;23.992;2023-07-20T01:09:00;92680.91;;;20.80;75.65
3250;BME280;1637;42.020;23.992;2023-07-20T01:11:36;92671.91;;;20.88;75.85
3250;BME280;1637;42.020;23.992;2023-07-20T01:14:05;92665.06;;;20.93;75.45
3250;BME280;1637;42.020;23.992;2023-07-20T01:16:32;92665.06;;;20.93;75.61
3250;BME280;1637;42.020;23.992;2023-07-20T01:18:59;92658.31;;;21.18;74.59
3250;BME280;1637;42.020;23.992;2023-07-20T01:21:37;92666.28;;;21.21;73.82
3250;BME280;1637;42.020;23.992;2023-07-20T01:27:30;92654.47;;;20.95;74.92
3250;BME280;1637;42.020;23.992;2023-07-20T01:30:19;92655.28;;;20.57;76.58
3250;BME280;1637;42.020;23.992;2023-07-20T01:32:54;92652.53;;;20.42;77.71
3250;BME280;1637;42.020;23.992;2023-07-20T01:35:23;92650.03;;;20.30;78.45
3250;BME280;1637;42.020;23.992;2023-07-20T01:37:53;92651.19;;;20.38;78.09
3250;BME280;1637;42.020;23.992;2023-07-20T01:40:22;92648.22;;;20.50;76.88
3250;BME280;1637;42.020;23.992;2023-07-20T01:42:50;92635.22;;;20.69;76.30
3250;BME280;1637;42.020;23.992;2023-07-20T01:45:18;92644.66;;;20.59;76.69
3250;BME280;1637;42.020;23.992;2023-07-20T01:47:45;92641.97;;;20.74;75.91
3250;BME280;1637;42.020;23.992;2023-07-20T01:50:13;92633.88;;;20.65;76.13
3250;BME280;1637;42.020;23.992;2023-07-20T01:52:39;92627.31;;;20.71;75.74
3250;BME280;1637;42.020;23.992;2023-07-20T01:55:07;92668.31;;;20.53;76.54
3250;BME280;1637;42.020;23.992;2023-07-20T01:57:34;92634.31;;;20.34;77.67
3250;BME280;1637;42.020;23.992;2023-07-20T02:00:01;92636.91;;;20.28;77.99
3250;BME280;1637;42.020;23.992;2023-07-20T02:02:28;92631.25;;;20.55;76.69
3250;BME280;1637;42.020;23.992;2023-07-20T02:04:55;92627.97;;;20.81;76.22
3250;BME280;1637;42.020;23.992;2023-07-20T02:07:23;92628.44;;;20.79;75.75
3250;BME280;1637;42.020;23.992;2023-07-20T02:09:51;92630.03;;;21.01;74.34
3250;BME280;1637;42.020;23.992;2023-07-20T02:12:17;92625.53;;;21.12;73.85
3250;BME280;1637;42.020;23.992;2023-07-20T02:14:44;92620.16;;;21.03;73.77
3250;BME280;1637;42.020;23.992;2023-07-20T02:17:11;92630.97;;;21.12;73.16
3250;BME280;1637;42.020;23.992;2023-07-20T02:19:40;92628.72;;;21.11;73.17
3250;BME280;1637;42.020;23.992;2023-07-20T02:22:07;92631.53;;;21.16;73.41
3250;BME280;1637;42.020;23.992;2023-07-20T02:24:35;92632.28;;;21.17;73.40
3250;BME280;1637;42.020;23.992;2023-07-20T02:27:02;92628.16;;;21.07;73.63
3250;BME280;1637;42.020;23.992;2023-07-20T02:29:28;92634.34;;;21.07;73.47
3250;BME280;1637;42.020;23.992;2023-07-20T02:31:55;92628.63;;;21.05;74.25
3250;BME280;1637;42.020;23.992;2023-07-20T02:34:22;92624.41;;;21.04;73.56
3250;BME280;1637;42.020;23.992;2023-07-20T02:36:49;92626.75;;;20.97;74.28
3250;BME280;1637;42.020;23.992;2023-07-20T02:39:16;92620.66;;;20.87;74.33
3250;BME280;1637;42.020;23.992;2023-07-20T02:41:44;92618.69;;;20.73;74.97
3250;BME280;1637;42.020;23.992;2023-07-20T02:44:11;92615.69;;;20.56;76.16
3250;BME280;1637;42.020;23.992;2023-07-20T02:46:38;92623.19;;;20.46;77.05
3250;BME280;1637;42.020;23.992;2023-07-20T02:49:04;92625.50;;;20.39;77.38
3250;BME280;1637;42.020;23.992;2023-07-20T02:51:31;92626.25;;;20.39;77.21
3250;BME280;1637;42.020;23.992;2023-07-20T02:53:58;92619.47;;;20.35;77.69
3250;BME280;1637;42.020;23.992;2023-07-20T02:56:26;92631.81;;;20.21;78.54
3250;BME280;1637;42.020;23.992;2023-07-20T02:58:54;92620.09;;;20.15;78.34
3250;BME280;1637;42.020;23.992;2023-07-20T03:01:21;92624.59;;;20.18;79.06
3250;BME280;1637;42.020;23.992;2023-07-20T03:03:48;92627.72;;;20.25;78.28
3250;BME280;1637;42.020;23.992;2023-07-20T03:06:15;92634.81;;;20.23;78.34
3250;BME280;1637;42.020;23.992;2023-07-20T03:08:43;92641.41;;;20.31;77.67
3250;BME280;1637;42.020;23.992;2023-07-20T03:11:13;92633.78;;;20.44;76.99
3250;BME280;1637;42.020;23.992;2023-07-20T03:13:40;92636.44;;;20.68;76.05
3250;BME280;1637;42.020;23.992;2023-07-20T03:16:09;92641.88;;;20.53;76.06
3250;BME280;1637;42.020;23.992;2023-07-20T03:18:36;92642.63;;;20.54;76.97
3250;BME280;1637;42.020;23.992;2023-07-20T03:21:03;92633.94;;;20.41;76.34
3250;BME280;1637;42.020;23.992;2023-07-20T03:23:30;92633.59;;;20.48;76.25
3250;BME280;1637;42.020;23.992;2023-07-20T03:25:57;92630.50;;;20.55;76.54
3250;BME280;1637;42.020;23.992;2023-07-20T03:28:24;92601.72;;;20.24;77.24
3250;BME280;1637;42.020;23.992;2023-07-20T03:30:53;92628.72;;;20.67;75.44
3250;BME280;1637;42.020;23.992;2023-07-20T03:33:22;92629.47;;;20.82;74.22
3250;BME280;1637;42.020;23.992;2023-07-20T03:35:49;92627.59;;;20.88;74.17
3250;BME280;1637;42.020;23.992;2023-07-20T03:38:16;92625.34;;;21.31;72.97
3250;BME280;1637;42.020;23.992;2023-07-20T03:40:49;92636.03;;;21.34;72.38
3250;BME280;1637;42.020;23.992;2023-07-20T03:43:16;92636.94;;;21.46;71.63
3250;BME280;1637;42.020;23.992;2023-07-20T03:45:43;92633.97;;;21.64;72.22
3250;BME280;1637;42.020;23.992;2023-07-20T03:48:10;92628.06;;;21.86;71.50
3250;BME280;1637;42.020;23.992;2023-07-20T03:50:39;92622.44;;;22.10;71.33
3250;BME280;1637;42.020;23.992;2023-07-20T03:53:06;92622.47;;;22.56;69.50
3250;BME280;1637;42.020;23.992;2023-07-20T03:55:32;92632.25;;;22.68;69.03
3250;BME280;1637;42.020;23.992;2023-07-20T03:57:59;92627.50;;;22.63;68.53
3250;BME280;1637;42.020;23.992;2023-07-20T04:00:27;92624.97;;;22.59;67.68
3250;BME280;1637;42.020;23.992;2023-07-20T04:02:54;92629.31;;;22.72;66.84
3250;BME280;1637;42.020;23.992;2023-07-20T04:05:21;92628.44;;;23.06;65.81
3250;BME280;1637;42.020;23.992;2023-07-20T04:07:49;92646.09;;;23.42;65.22
3250;BME280;1637;42.020;23.992;2023-07-20T04:10:16;92645.69;;;23.55;65.23
3250;BME280;1637;42.020;23.992;2023-07-20T04:12:43;92647.22;;;23.30;66.27
3250;BME280;1637;42.020;23.992;2023-07-20T04:15:11;92648.22;;;23.58;65.68
3250;BME280;1637;42.020;23.992;2023-07-20T04:17:38;92643.81;;;23.72;65.03
3250;BME280;1637;42.020;23.992;2023-07-20T04:20:06;92634.25;;;23.93;64.64
3250;BME280;1637;42.020;23.992;2023-07-20T04:22:34;92641.66;;;24.30;62.86
3250;BME280;1637;42.020;23.992;2023-07-20T04:25:02;92652.47;;;24.61;62.33
3250;BME280;1637;42.020;23.992;2023-07-20T04:27:29;92645.47;;;24.60;62.09
3250;BME280;1637;42.020;23.992;2023-07-20T04:29:57;92644.53;;;24.69;61.73
3250;BME280;1637;42.020;23.992;2023-07-20T04:32:24;92642.34;;;25.01;60.72
3250;BME280;1637;42.020;23.992;2023-07-20T04:34:51;92644.38;;;25.51;59.47
3250;BME280;1637;42.020;23.992;2023-07-20T04:37:18;92642.13;;;25.49;59.01
3250;BME280;1637;42.020;23.992;2023-07-20T04:39:45;92613.19;;;25.71;58.61
3250;BME280;1637;42.020;23.992;2023-07-20T04:42:14;92645.78;;;26.02;57.07
3250;BME280;1637;42.020;23.992;2023-07-20T04:44:41;92642.88;;;25.72;58.85
3250;BME280;1637;42.020;23.992;2023-07-20T04:47:07;92645.31;;;25.98;57.95
3250;BME280;1637;42.020;23.992;2023-07-20T04:49:35;92649.78;;;26.12;58.08
3250;BME280;1637;42.020;23.992;2023-07-20T04:52:02;92647.97;;;26.31;56.98
3250;BME280;1637;42.020;23.992;2023-07-20T04:54:29;92651.13;;;26.58;56.82
3250;BME280;1637;42.020;23.992;2023-07-20T04:56:56;92648.88;;;27.03;55.38
3250;BME280;1637;42.020;23.992;2023-07-20T04:59:24;92658.53;;;27.21;54.55
3250;BME280;1637;42.020;23.992;2023-07-20T05:01:51;92652.53;;;27.22;55.72
3250;BME280;1637;42.020;23.992;2023-07-20T05:04:18;92644.91;;;27.34;55.37
3250;BME280;1637;42.020;23.992;2023-07-20T05:06:45;92640.25;;;27.53;55.03
3250;BME280;1637;42.020;23.992;2023-07-20T05:09:11;92639.94;;;28.17;52.34
3250;BME280;1637;42.020;23.992;2023-07-20T05:11:38;92643.50;;;27.57;52.65
3250;BME280;1637;42.020;23.992;2023-07-20T05:14:05;92640.50;;;27.55;53.57
3250;BME280;1637;42.020;23.992;2023-07-20T05:16:33;92638.75;;;27.58;52.63
3250;BME280;1637;42.020;23.992;2023-07-20T05:19:00;92648.25;;;28.35;50.91
3250;BME280;1637;42.020;23.992;2023-07-20T05:21:27;92616.78;;;27.82;52.76
3250;BME280;1637;42.020;23.992;2023-07-20T05:23:54;92639.47;;;27.28;54.39
3250;BME280;1637;42.020;23.992;2023-07-20T05:26:21;92629.16;;;27.34;54.56
3250;BME280;1637;42.020;23.992;2023-07-20T05:28:47;92634.91;;;27.36;53.86
3250;BME280;1637;42.020;23.992;2023-07-20T05:31:14;92633.72;;;27.62;54.16
3250;BME280;1637;42.020;23.992;2023-07-20T05:33:42;92561.97;;;27.54;53.69
3250;BME280;1637;42.020;23.992;2023-07-20T05:36:09;92621.06;;;28.02;52.93
3250;BME280;1637;42.020;23.992;2023-07-20T05:38:36;92621.69;;;28.38;51.82
3250;BME280;1637;42.020;23.992;2023-07-20T05:41:03;92625.03;;;28.50;51.48
3250;BME280;1637;42.020;23.992;2023-07-20T05:43:30;92607.97;;;28.70;51.47
3250;BME280;1637;42.020;23.992;2023-07-20T05:45:57;92618.47;;;28.71;51.38
3250;BME280;1637;42.020;23.992;2023-07-20T05:48:23;92618.34;;;29.33;49.42
3250;BME280;1637;42.020;23.992;2023-07-20T05:50:52;92619.22;;;29.60;49.03
3250;BME280;1637;42.020;23.992;2023-07-20T05:53:19;92614.31;;;29.98;47.91
3250;BME280;1637;42.020;23.992;2023-07-20T05:55:52;92612.19;;;30.18;47.75
3250;BME280;1637;42.020;23.992;2023-07-20T05:58:18;92555.44;;;29.90;46.77
3250;BME280;1637;42.020;23.992;2023-07-20T06:00:47;92616.00;;;31.01;45.95
3250;BME280;1637;42.020;23.992;2023-07-20T06:03:14;92621.41;;;31.83;43.74
3250;BME280;1637;42.020;23.992;2023-07-20T06:05:41;92610.69;;;31.37;44.44
3250;BME280;1637;42.020;23.992;2023-07-20T06:08:10;92615.63;;;30.84;46.15
3250;BME280;1637;42.020;23.992;2023-07-20T06:10:36;92613.25;;;31.56;43.45
3250;BME280;1637;42.020;23.992;2023-07-20T06:13:03;92579.13;;;31.82;43.57
3250;BME280;1637;42.020;23.992;2023-07-20T06:15:32;92615.84;;;32.03;42.29
3250;BME280;1637;42.020;23.992;2023-07-20T06:18:00;92603.78;;;31.52;42.81
3250;BME280;1637;42.020;23.992;2023-07-20T06:20:27;92586.97;;;32.56;40.45
3250;BME280;1637;42.020;23.992;2023-07-20T06:22:54;92595.28;;;30.95;44.28
3250;BME280;1637;42.020;23.992;2023-07-20T06:25:22;92591.91;;;32.42;41.90
3250;BME280;1637;42.020;23.992;2023-07-20T06:27:49;92602.06;;;32.11;41.80
3250;BME280;1637;42.020;23.992;2023-07-20T06:30:17;92598.19;;;32.42;41.01
3250;BME280;1637;42.020;23.992;2023-07-20T06:32:43;92592.84;;;32.44;41.67
3250;BME280;1637;42.020;23.992;2023-07-20T06:35:10;92591.19;;;32.49;41.52
3250;BME280;1637;42.020;23.992;2023-07-20T06:37:37;92590.78;;;32.73;41.65
3250;BME280;1637;42.020;23.992;2023-07-20T06:40:05;92583.31;;;33.20;40.07
3250;BME280;1637;42.020;23.992;2023-07-20T06:42:35;92583.50;;;33.14;42.04
3250;BME280;1637;42.020;23.992;2023-07-20T06:45:03;92579.31;;;32.77;40.91
3250;BME280;1637;42.020;23.992;2023-07-20T06:47:29;92590.22;;;33.49;39.94
3250;BME280;1637;42.020;23.992;2023-07-20T06:49:57;92589.88;;;33.75;39.31
3250;BME280;1637;42.020;23.992;2023-07-20T06:52:23;92580.69;;;33.06;40.89
3250;BME280;1637;42.020;23.992;2023-07-20T06:54:50;92576.59;;;32.49;42.24
3250;BME280;1637;42.020;23.992;2023-07-20T06:57:17;92574.69;;;33.54;39.65
3250;BME280;1637;42.020;23.992;2023-07-20T06:59:46;92565.25;;;33.41;41.02
3250;BME280;1637;42.020;23.992;2023-07-20T07:02:12;92573.53;;;34.33;38.78
3250;BME280;1637;42.020;23.992;2023-07-20T07:04:39;92559.25;;;32.63;41.39
3250;BME280;1637;42.020;23.992;2023-07-20T07:07:06;92555.91;;;33.08;41.62
3250;BME280;1637;42.020;23.992;2023-07-20T07:09:33;92568.06;;;33.87;40.58
3250;BME280;1637;42.020;23.992;2023-07-20T07:12:00;92562.84;;;33.91;40.30
3250;BME280;1637;42.020;23.992;2023-07-20T07:14:26;92559.13;;;33.58;40.67
3250;BME280;1637;42.020;23.992;2023-07-20T07:16:55;92567.09;;;33.77;39.10
3250;BME280;1637;42.020;23.992;2023-07-20T07:19:21;92569.69;;;34.28;37.49
3250;BME280;1637;42.020;23.992;2023-07-20T07:21:48;92555.13;;;34.53;37.92
3250;BME280;1637;42.020;23.992;2023-07-20T07:24:15;92553.69;;;34.44;37.34
3250;BME280;1637;42.020;23.992;2023-07-20T07:26:42;92546.28;;;34.24;39.20
3250;BME280;1637;42.020;23.992;2023-07-20T07:29:09;92543.31;;;34.77;39.42
3250;BME280;1637;42.020;23.992;2023-07-20T07:31:36;92543.41;;;34.62;37.73
3250;BME280;1637;42.020;23.992;2023-07-20T07:34:05;92544.16;;;35.60;35.27
3250;BME280;1637;42.020;23.992;2023-07-20T07:36:32;92533.81;;;35.53;35.82
3250;BME280;1637;42.020;23.992;2023-07-20T07:38:59;92533.25;;;35.79;35.01
3250;BME280;1637;42.020;23.992;2023-07-20T07:41:26;92535.69;;;35.75;34.96
3250;BME280;1637;42.020;23.992;2023-07-20T07:43:53;92525.84;;;35.74;36.13
3250;BME280;1637;42.020;23.992;2023-07-20T07:46:19;92523.28;;;35.93;34.11
3250;BME280;1637;42.020;23.992;2023-07-20T07:48:46;92525.56;;;35.62;33.94
3250;BME280;1637;42.020;23.992;2023-07-20T07:51:15;92522.91;;;35.47;33.48
3250;BME280;1637;42.020;23.992;2023-07-20T07:53:41;92529.81;;;35.88;31.85
3250;BME280;1637;42.020;23.992;2023-07-20T07:56:09;92533.59;;;35.83;33.29
3250;BME280;1637;42.020;23.992;2023-07-20T07:58:36;92529.22;;;36.32;32.59
3250;BME280;1637;42.020;23.992;2023-07-20T08:01:02;92531.25;;;36.48;31.14
3250;BME280;1637;42.020;23.992;2023-07-20T08:03:29;92531.16;;;36.39;33.43
3250;BME280;1637;42.020;23.992;2023-07-20T08:05:56;92527.28;;;36.00;33.29
3250;BME280;1637;42.020;23.992;2023-07-20T08:08:25;92525.13;;;35.48;33.57
3250;BME280;1637;42.020;23.992;2023-07-20T08:10:53;92527.63;;;34.01;36.39
3250;BME280;1637;42.020;23.992;2023-07-20T08:13:20;92530.41;;;35.87;33.55
3250;BME280;1637;42.020;23.992;2023-07-20T08:15:49;92539.34;;;36.20;34.03
3250;BME280;1637;42.020;23.992;2023-07-20T08:18:17;92522.16;;;35.71;34.18
3250;BME280;1637;42.020;23.992;2023-07-20T08:20:44;92527.13;;;35.98;33.41
3250;BME280;1637;42.020;23.992;2023-07-20T08:23:11;92526.25;;;36.47;34.06
3250;BME280;1637;42.020;23.992;2023-07-20T08:25:39;92529.22;;;36.32;34.14
3250;BME280;1637;42.020;23.992;2023-07-20T08:28:09;92530.19;;;36.44;33.63
3250;BME280;1637;42.020;23.992;2023-07-20T08:30:43;92530.97;;;36.89;32.94
3250;BME280;1637;42.020;23.992;2023-07-20T08:33:10;92527.78;;;36.23;33.70
3250;BME280;1637;42.020;23.992;2023-07-20T08:35:37;92520.13;;;36.31;33.41
3250;BME280;1637;42.020;23.992;2023-07-20T08:38:04;92507.31;;;36.28;33.65
3250;BME280;1637;42.020;23.992;2023-07-20T08:40:31;92517.38;;;37.02;32.88
3250;BME280;1637;42.020;23.992;2023-07-20T08:43:02;92507.91;;;37.15;32.97
3250;BME280;1637;42.020;23.992;2023-07-20T08:45:30;92500.88;;;36.01;34.62
3250;BME280;1637;42.020;23.992;2023-07-20T08:48:00;92507.59;;;35.98;34.64
3250;BME280;1637;42.020;23.992;2023-07-20T08:50:30;92514.31;;;35.77;35.70
3250;BME280;1637;42.020;23.992;2023-07-20T08:52:58;92521.47;;;35.88;35.80
3250;BME280;1637;42.020;23.992;2023-07-20T08:55:26;92508.00;;;35.77;34.83
3250;BME280;1637;42.020;23.992;2023-07-20T08:57:54;92487.13;;;35.61;35.66
3250;BME280;1637;42.020;23.992;2023-07-20T09:00:24;92469.47;;;35.83;34.63
3250;BME280;1637;42.020;23.992;2023-07-20T09:02:53;92465.81;;;36.15;34.38
3250;BME280;1637;42.020;23.992;2023-07-20T09:05:22;92466.81;;;35.68;34.56
3250;BME280;1637;42.020;23.992;2023-07-20T09:07:51;92476.69;;;35.86;34.19
3250;BME280;1637;42.020;23.992;2023-07-20T09:10:18;92462.78;;;35.61;34.33
3250;BME280;1637;42.020;23.992;2023-07-20T09:12:46;92469.97;;;36.06;34.27
3250;BME280;1637;42.020;23.992;2023-07-20T09:15:13;92467.28;;;36.60;33.19
3250;BME280;1637;42.020;23.992;2023-07-20T09:17:45;92449.31;;;36.27;33.24
3250;BME280;1637;42.020;23.992;2023-07-20T09:20:14;92474.47;;;36.54;33.75
3250;BME280;1637;42.020;23.992;2023-07-20T09:22:42;92477.59;;;36.23;33.74
3250;BME280;1637;42.020;23.992;2023-07-20T09:25:11;92472.94;;;36.70;33.54
3250;BME280;1637;42.020;23.992;2023-07-20T09:27:40;92469.69;;;36.64;33.90
3250;BME280;1637;42.020;23.992;2023-07-20T09:30:08;92444.94;;;36.51;33.05
3250;BME280;1637;42.020;23.992;2023-07-20T09:32:42;92468.31;;;36.38;34.38
3250;BME280;1637;42.020;23.992;2023-07-20T09:35:13;92471.03;;;36.11;33.82
3250;BME280;1637;42.020;23.992;2023-07-20T09:37:46;92467.44;;;35.59;34.73
3250;BME280;1637;42.020;23.992;2023-07-20T09:40:15;92459.75;;;35.50;34.39
3250;BME280;1637;42.020;23.992;2023-07-20T09:42:42;92461.50;;;35.37;34.73
3250;BME280;1637;42.020;23.992;2023-07-20T09:45:09;92455.25;;;35.04;34.83
3250;BME280;1637;42.020;23.992;2023-07-20T09:47:37;92441.44;;;35.39;34.80
3250;BME280;1637;42.020;23.992;2023-07-20T09:50:07;92444.16;;;35.46;34.16
3250;BME280;1637;42.020;23.992;2023-07-20T09:52:38;92424.63;;;35.89;34.23
3250;BME280;1637;42.020;23.992;2023-07-20T09:55:06;92425.22;;;35.87;33.53
3250;BME280;1637;42.020;23.992;2023-07-20T09:57:34;92439.69;;;36.20;34.51
3250;BME280;1637;42.020;23.992;2023-07-20T10:00:02;92433.69;;;36.24;33.69
3250;BME280;1637;42.020;23.992;2023-07-20T10:02:33;92441.94;;;36.66;32.99
3250;BME280;1637;42.020;23.992;2023-07-20T10:05:03;92440.97;;;35.92;33.20
3250;BME280;1637;42.020;23.992;2023-07-20T10:07:34;92439.66;;;35.93;32.94
3250;BME280;1637;42.020;23.992;2023-07-20T10:10:02;92441.06;;;35.60;33.80
3250;BME280;1637;42.020;23.992;2023-07-20T10:12:31;92435.38;;;35.75;34.02
3250;BME280;1637;42.020;23.992;2023-07-20T10:15:11;92435.69;;;36.13;33.31
3250;BME280;1637;42.020;23.992;2023-07-20T10:17:46;92445.78;;;35.74;33.34
3250;BME280;1637;42.020;23.992;2023-07-20T10:20:16;92444.34;;;35.48;33.67
3250;BME280;1637;42.020;23.992;2023-07-20T10:22:47;92438.09;;;35.40;33.78
3250;BME280;1637;42.020;23.992;2023-07-20T10:25:16;92434.34;;;35.63;33.70
3250;BME280;1637;42.020;23.992;2023-07-20T10:27:45;92430.25;;;34.97;33.89
3250;BME280;1637;42.020;23.992;2023-07-20T10:30:13;92424.06;;;34.81;34.49
3250;BME280;1637;42.020;23.992;2023-07-20T10:32:41;92426.97;;;34.58;34.21
3250;BME280;1637;42.020;23.992;2023-07-20T10:35:13;92417.75;;;34.80;35.01
3250;BME280;1637;42.020;23.992;2023-07-20T10:37:48;92427.41;;;34.47;35.14
3250;BME280;1637;42.020;23.992;2023-07-20T10:40:29;92432.63;;;34.35;36.04
3250;BME280;1637;42.020;23.992;2023-07-20T10:42:58;92422.50;;;34.23;37.04
3250;BME280;1637;42.020;23.992;2023-07-20T10:45:35;92428.50;;;34.76;36.51
3250;BME280;1637;42.020;23.992;2023-07-20T10:48:06;92417.97;;;33.95;37.39
3250;BME280;1637;42.020;23.992;2023-07-20T10:50:33;92423.06;;;34.29;36.53
3250;BME280;1637;42.020;23.992;2023-07-20T10:53:12;92423.34;;;33.93;36.74
3250;BME280;1637;42.020;23.992;2023-07-20T10:55:39;92430.59;;;34.36;36.43
3250;BME280;1637;42.020;23.992;2023-07-20T10:58:08;92421.00;;;34.22;37.40
3250;BME280;1637;42.020;23.992;2023-07-20T11:00:35;92429.53;;;34.24;37.88
3250;BME280;1637;42.020;23.992;2023-07-20T11:03:02;92418.56;;;33.78;39.01
3250;BME280;1637;42.020;23.992;2023-07-20T11:05:33;92416.53;;;33.71;39.34
3250;BME280;1637;42.020;23.992;2023-07-20T11:08:00;92410.81;;;33.61;39.85
3250;BME280;1637;42.020;23.992;2023-07-20T11:10:30;92423.25;;;32.99;40.62
3250;BME280;1637;42.020;23.992;2023-07-20T11:13:16;92426.03;;;33.07;41.72
3250;BME280;1637;42.020;23.992;2023-07-20T11:15:46;92416.25;;;32.83;41.78
3250;BME280;1637;42.020;23.992;2023-07-20T11:18:14;92413.63;;;32.85;41.31
3250;BME280;1637;42.020;23.992;2023-07-20T11:20:41;92425.56;;;32.50;41.18
3250;BME280;1637;42.020;23.992;2023-07-20T11:23:09;92432.59;;;32.51;41.42
3250;BME280;1637;42.020;23.992;2023-07-20T11:25:38;92428.25;;;32.19;42.36
3250;BME280;1637;42.020;23.992;2023-07-20T11:28:08;92436.63;;;31.91;43.06
3250;BME280;1637;42.020;23.992;2023-07-20T11:30:36;92445.00;;;32.06;43.19
3250;BME280;1637;42.020;23.992;2023-07-20T11:33:03;92443.50;;;32.41;42.75
3250;BME280;1637;42.020;23.992;2023-07-20T11:35:31;92444.72;;;32.99;41.41
3250;BME280;1637;42.020;23.992;2023-07-20T11:38:02;92446.00;;;32.90;42.37
3250;BME280;1637;42.020;23.992;2023-07-20T11:40:28;92436.94;;;33.05;43.00
3250;BME280;1637;42.020;23.992;2023-07-20T11:42:57;92441.94;;;33.14;42.48
3250;BME280;1637;42.020;23.992;2023-07-20T11:45:25;92446.94;;;32.77;44.29
3250;BME280;1637;42.020;23.992;2023-07-20T11:47:53;92439.91;;;32.92;43.99
3250;BME280;1637;42.020;23.992;2023-07-20T11:50:19;92445.28;;;33.43;42.71
3250;BME280;1637;42.020;23.992;2023-07-20T11:52:46;92440.66;;;33.00;43.48
3250;BME280;1637;42.020;23.992;2023-07-20T11:55:13;92433.38;;;32.59;44.37
3250;BME280;1637;42.020;23.992;2023-07-20T11:57:40;92432.78;;;32.45;44.58
3250;BME280;1637;42.020;23.992;2023-07-20T12:00:10;92422.06;;;32.49;45.28
3250;BME280;1637;42.020;23.992;2023-07-20T12:02:37;92417.31;;;32.14;45.45
3250;BME280;1637;42.020;23.992;2023-07-20T12:05:05;92420.84;;;32.14;45.31
3250;BME280;1637;42.020;23.992;2023-07-20T12:07:35;92433.66;;;32.32;44.62
3250;BME280;1637;42.020;23.992;2023-07-20T12:10:06;92414.50;;;31.98;45.93
3250;BME280;1637;42.020;23.992;2023-07-20T12:12:34;92407.47;;;31.61;46.09
3250;BME280;1637;42.020;23.992;2023-07-20T12:15:17;92413.78;;;31.33;46.63
3250;BME280;1637;42.020;23.992;2023-07-20T12:17:49;92411.97;;;31.43;46.39
3250;BME280;1637;42.020;23.992;2023-07-20T12:20:25;92405.03;;;31.86;45.89
3250;BME280;1637;42.020;23.992;2023-07-20T12:22:52;92398.56;;;32.35;44.82
3250;BME280;1637;42.020;23.992;2023-07-20T12:25:19;92404.22;;;32.81;44.30
3250;BME280;1637;42.020;23.992;2023-07-20T12:27:47;92401.06;;;32.99;44.47
3250;BME280;1637;42.020;23.992;2023-07-20T12:30:14;92398.84;;;32.90;43.02
3250;BME280;1637;42.020;23.992;2023-07-20T12:32:42;92403.09;;;32.99;42.68
3250;BME280;1637;42.020;23.992;2023-07-20T12:35:09;92394.75;;;33.06;42.73
3250;BME280;1637;42.020;23.992;2023-07-20T12:37:37;92385.13;;;32.69;43.25
3250;BME280;1637;42.020;23.992;2023-07-20T12:40:04;92379.59;;;33.23;42.67
3250;BME280;1637;42.020;23.992;2023-07-20T12:42:36;92368.31;;;32.90;41.86
3250;BME280;1637;42.020;23.992;2023-07-20T12:45:05;92371.25;;;32.62;42.91
3250;BME280;1637;42.020;23.992;2023-07-20T12:47:32;92376.06;;;32.54;43.04
3250;BME280;1637;42.020;23.992;2023-07-20T12:50:00;92367.75;;;32.92;42.16
3250;BME280;1637;42.020;23.992;2023-07-20T12:52:29;92364.78;;;33.20;41.58
3250;BME280;1637;42.020;23.992;2023-07-20T12:54:56;92336.66;;;33.16;42.00
3250;BME280;1637;42.020;23.992;2023-07-20T12:57:24;92364.81;;;32.82;42.60
3250;BME280;1637;42.020;23.992;2023-07-20T12:59:50;92350.91;;;32.59;43.35
3250;BME280;1637;42.020;23.992;2023-07-20T13:02:17;92352.78;;;32.95;42.89
3250;BME280;1637;42.020;23.992;2023-07-20T13:04:44;92347.88;;;33.56;41.51
3250;BME280;1637;42.020;23.992;2023-07-20T13:07:12;92339.50;;;33.79;40.61
3250;BME280;1637;42.020;23.992;2023-07-20T13:09:39;92345.22;;;33.81;41.44
3250;BME280;1637;42.020;23.992;2023-07-20T13:12:07;92355.16;;;33.99;41.26
3250;BME280;1637;42.020;23.992;2023-07-20T13:14:34;92343.00;;;34.20;40.52
3250;BME280;1637;42.020;23.992;2023-07-20T13:17:00;92351.69;;;34.24;39.85
3250;BME280;1637;42.020;23.992;2023-07-20T13:19:27;92352.44;;;33.84;40.68